sensor_id;sensor_type;location;lat;lon;timestamp;P1;durP1;ratioP1;P2;durP2;ratioP2
79243;SDS011;68672;42.676;23.356;2023-04-07T00:01:03;14.93;;;8.35;;
79243;SDS011;68672;42.676;23.356;2023-04-07T00:03:31;9.50;;;7.72;;
79243;SDS011;68672;42.676;23.356;2023-04-07T00:05:57;10.23;;;7.78;;
79243;SDS011;68672;42.676;23.356;2023-04-07T00:08:23;10.65;;;7.68;;
79243;SDS011;68672;42.676;23.356;2023-04-07T00:10:48;10.68;;;8.25;;
79243;SDS011;68672;42.676;23.356;2023-04-07T00:13:14;13.57;;;8.38;;
79243;SDS011;68672;42.676;23.356;2023-04-07T00:15:40;10.13;;;7.15;;
79243;SDS011;68672;42.676;23.356;2023-04-07T00:18:08;9.25;;;7.35;;
79243;SDS011;68672;42.676;23.356;2023-04-07T00:20:33;9.95;;;7.38;;
79243;SDS011;68672;42.676;23.356;2023-04-07T00:22:59;12.73;;;8.13;;
79243;SDS011;68672;42.676;23.356;2023-04-07T00:25:24;11.77;;;8.77;;
79243;SDS011;68672;42.676;23.356;2023-04-07T00:27:50;13.13;;;8.65;;
79243;SDS011;68672;42.676;23.356;2023-04-07T00:30:18;11.13;;;7.32;;
79243;SDS011;68672;42.676;23.356;2023-04-07T00:32:43;12.18;;;8.52;;
79243;SDS011;68672;42.676;23.356;2023-04-07T00:35:09;9.40;;;7.00;;
79243;SDS011;68672;42.676;23.356;2023-04-07T00:37:34;7.97;;;6.78;;
79243;SDS011;68672;42.676;23.356;2023-04-07T00:40:00;9.48;;;7.35;;
79243;SDS011;68672;42.676;23.356;2023-04-07T00:42:25;10.45;;;7.50;;
79243;SDS011;68672;42.676;23.356;2023-04-07T00:44:51;13.45;;;8.65;;
79243;SDS011;68672;42.676;23.356;2023-04-07T00:47:16;13.25;;;9.73;;
79243;SDS011;68672;42.676;23.356;2023-04-07T00:49:42;15.07;;;9.57;;
79243;SDS011;68672;42.676;23.356;2023-04-07T00:52:10;15.23;;;10.18;;
79243;SDS011;68672;42.676;23.356;2023-04-07T00:54:36;13.95;;;10.38;;
79243;SDS011;68672;42.676;23.356;2023-04-07T00:57:03;15.32;;;10.85;;
79243;SDS011;68672;42.676;23.356;2023-04-07T00:59:28;18.25;;;12.52;;
79243;SDS011;68672;42.676;23.356;2023-04-07T01:07:14;20.40;;;12.80;;
79243;SDS011;68672;42.676;23.356;2023-04-07T01:09:46;20.25;;;13.30;;
79243;SDS011;68672;42.676;23.356;2023-04-07T01:12:27;23.92;;;13.32;;
79243;SDS011;68672;42.676;23.356;2023-04-07T01:15:06;22.65;;;14.25;;
79243;SDS011;68672;42.676;23.356;2023-04-07T01:17:34;21.30;;;15.05;;
79243;SDS011;68672;42.676;23.356;2023-04-07T01:20:02;21.00;;;14.30;;
79243;SDS011;68672;42.676;23.356;2023-04-07T01:22:40;23.17;;;14.93;;
79243;SDS011;68672;42.676;23.356;2023-04-07T01:25:21;20.30;;;15.07;;
79243;SDS011;68672;42.676;23.356;2023-04-07T01:30:34;24.52;;;13.48;;
79243;SDS011;68672;42.676;23.356;2023-04-07T01:33:03;20.20;;;13.90;;
79243;SDS011;68672;42.676;23.356;2023-04-07T01:35:31;19.10;;;13.75;;
79243;SDS011;68672;42.676;23.356;2023-04-07T01:38:00;18.52;;;12.57;;
79243;SDS011;68672;42.676;23.356;2023-04-07T01:40:27;19.45;;;12.85;;
79243;SDS011;68672;42.676;23.356;2023-04-07T01:42:54;20.08;;;15.20;;
79243;SDS011;68672;42.676;23.356;2023-04-07T01:45:21;19.25;;;13.38;;
79243;SDS011;68672;42.676;23.356;2023-04-07T01:47:47;20.45;;;13.90;;
79243;SDS011;68672;42.676;23.356;2023-04-07T01:50:14;19.83;;;13.68;;
79243;SDS011;68672;42.676;23.356;2023-04-07T01:52:40;19.85;;;13.18;;
79243;SDS011;68672;42.676;23.356;2023-04-07T01:55:07;19.83;;;13.52;;
79243;SDS011;68672;42.676;23.356;2023-04-07T01:57:34;24.10;;;14.45;;
79243;SDS011;68672;42.676;23.356;2023-04-07T01:59:59;22.63;;;14.18;;
79243;SDS011;68672;42.676;23.356;2023-04-07T02:02:25;19.75;;;13.93;;
79243;SDS011;68672;42.676;23.356;2023-04-07T02:04:55;22.40;;;12.90;;
79243;SDS011;68672;42.676;23.356;2023-04-07T02:07:52;19.60;;;12.15;;
79243;SDS011;68672;42.676;23.356;2023-04-07T02:10:22;18.35;;;12.68;;
79243;SDS011;68672;42.676;23.356;2023-04-07T02:12:49;23.90;;;13.68;;
79243;SDS011;68672;42.676;23.356;2023-04-07T02:15:16;18.42;;;13.35;;
79243;SDS011;68672;42.676;23.356;2023-04-07T02:17:45;22.42;;;12.20;;
79243;SDS011;68672;42.676;23.356;2023-04-07T02:20:16;20.67;;;12.88;;
79243;SDS011;68672;42.676;23.356;2023-04-07T02:22:44;18.13;;;13.57;;
79243;SDS011;68672;42.676;23.356;2023-04-07T02:27:51;20.27;;;12.20;;
79243;SDS011;68672;42.676;23.356;2023-04-07T02:30:17;20.10;;;12.88;;
79243;SDS011;68672;42.676;23.356;2023-04-07T02:32:43;21.05;;;14.30;;
79243;SDS011;68672;42.676;23.356;2023-04-07T02:35:09;17.60;;;14.10;;
79243;SDS011;68672;42.676;23.356;2023-04-07T02:37:35;25.70;;;14.43;;
79243;SDS011;68672;42.676;23.356;2023-04-07T02:40:01;20.15;;;13.45;;
79243;SDS011;68672;42.676;23.356;2023-04-07T02:42:30;22.52;;;12.32;;
79243;SDS011;68672;42.676;23.356;2023-04-07T02:44:55;18.65;;;11.80;;
79243;SDS011;68672;42.676;23.356;2023-04-07T02:47:21;17.75;;;12.35;;
79243;SDS011;68672;42.676;23.356;2023-04-07T02:49:46;16.80;;;11.75;;
79243;SDS011;68672;42.676;23.356;2023-04-07T02:52:12;20.40;;;12.68;;
79243;SDS011;68672;42.676;23.356;2023-04-07T02:54:37;16.48;;;12.25;;
79243;SDS011;68672;42.676;23.356;2023-04-07T02:57:03;18.50;;;12.15;;
79243;SDS011;68672;42.676;23.356;2023-04-07T02:59:28;19.73;;;12.07;;
79243;SDS011;68672;42.676;23.356;2023-04-07T03:01:53;15.55;;;11.90;;
79243;SDS011;68672;42.676;23.356;2023-04-07T03:04:20;16.65;;;11.43;;
79243;SDS011;68672;42.676;23.356;2023-04-07T03:06:45;18.83;;;12.65;;
79243;SDS011;68672;42.676;23.356;2023-04-07T03:09:11;22.23;;;12.15;;
79243;SDS011;68672;42.676;23.356;2023-04-07T03:11:37;16.60;;;11.80;;
79243;SDS011;68672;42.676;23.356;2023-04-07T03:14:05;16.65;;;11.40;;
79243;SDS011;68672;42.676;23.356;2023-04-07T03:16:31;16.95;;;11.80;;
79243;SDS011;68672;42.676;23.356;2023-04-07T03:18:56;18.55;;;11.88;;
79243;SDS011;68672;42.676;23.356;2023-04-07T03:21:22;18.88;;;12.00;;
79243;SDS011;68672;42.676;23.356;2023-04-07T03:23:47;17.60;;;12.45;;
79243;SDS011;68672;42.676;23.356;2023-04-07T03:26:13;19.92;;;12.73;;
79243;SDS011;68672;42.676;23.356;2023-04-07T03:28:38;20.02;;;11.70;;
79243;SDS011;68672;42.676;23.356;2023-04-07T03:31:03;16.00;;;12.38;;
79243;SDS011;68672;42.676;23.356;2023-04-07T03:33:29;20.30;;;12.18;;
79243;SDS011;68672;42.676;23.356;2023-04-07T03:35:54;19.35;;;12.70;;
79243;SDS011;68672;42.676;23.356;2023-04-07T03:38:20;21.33;;;12.13;;
79243;SDS011;68672;42.676;23.356;2023-04-07T03:40:45;12.57;;;9.13;;
79243;SDS011;68672;42.676;23.356;2023-04-07T03:43:14;12.77;;;7.18;;
79243;SDS011;68672;42.676;23.356;2023-04-07T03:45:40;9.38;;;7.15;;
79243;SDS011;68672;42.676;23.356;2023-04-07T03:48:06;9.75;;;7.25;;
79243;SDS011;68672;42.676;23.356;2023-04-07T03:50:39;10.82;;;8.45;;
79243;SDS011;68672;42.676;23.356;2023-04-07T03:53:10;8.70;;;6.57;;
79243;SDS011;68672;42.676;23.356;2023-04-07T03:58:03;10.80;;;6.90;;
79243;SDS011;68672;42.676;23.356;2023-04-07T04:00:29;12.80;;;8.68;;
79243;SDS011;68672;42.676;23.356;2023-04-07T04:02:57;14.32;;;11.20;;
79243;SDS011;68672;42.676;23.356;2023-04-07T04:05:23;19.13;;;10.55;;
79243;SDS011;68672;42.676;23.356;2023-04-07T04:07:48;24.60;;;13.15;;
79243;SDS011;68672;42.676;23.356;2023-04-07T04:10:15;21.20;;;11.80;;
79243;SDS011;68672;42.676;23.356;2023-04-07T04:12:45;18.88;;;12.07;;
79243;SDS011;68672;42.676;23.356;2023-04-07T04:15:11;18.33;;;12.73;;
79243;SDS011;68672;42.676;23.356;2023-04-07T04:17:36;19.52;;;13.88;;
79243;SDS011;68672;42.676;23.356;2023-04-07T04:20:02;27.10;;;15.77;;
79243;SDS011;68672;42.676;23.356;2023-04-07T04:22:28;22.02;;;15.18;;
79243;SDS011;68672;42.676;23.356;2023-04-07T04:24:53;25.80;;;15.13;;
79243;SDS011;68672;42.676;23.356;2023-04-07T04:27:19;23.75;;;14.88;;
79243;SDS011;68672;42.676;23.356;2023-04-07T04:29:44;23.08;;;15.50;;
79243;SDS011;68672;42.676;23.356;2023-04-07T04:32:11;23.60;;;15.10;;
79243;SDS011;68672;42.676;23.356;2023-04-07T04:34:36;24.63;;;15.80;;
79243;SDS011;68672;42.676;23.356;2023-04-07T04:37:03;21.27;;;15.18;;
79243;SDS011;68672;42.676;23.356;2023-04-07T04:39:28;20.55;;;14.75;;
79243;SDS011;68672;42.676;23.356;2023-04-07T04:41:54;22.30;;;13.65;;
79243;SDS011;68672;42.676;23.356;2023-04-07T04:44:20;24.55;;;14.90;;
79243;SDS011;68672;42.676;23.356;2023-04-07T04:46:46;24.33;;;14.85;;
79243;SDS011;68672;42.676;23.356;2023-04-07T04:49:11;20.30;;;14.27;;
79243;SDS011;68672;42.676;23.356;2023-04-07T04:51:36;24.70;;;13.65;;
79243;SDS011;68672;42.676;23.356;2023-04-07T04:54:02;17.77;;;13.00;;
79243;SDS011;68672;42.676;23.356;2023-04-07T04:56:28;23.00;;;13.15;;
79243;SDS011;68672;42.676;23.356;2023-04-07T04:58:53;22.20;;;12.95;;
79243;SDS011;68672;42.676;23.356;2023-04-07T05:01:18;17.38;;;12.95;;
79243;SDS011;68672;42.676;23.356;2023-04-07T05:03:44;20.38;;;14.25;;
79243;SDS011;68672;42.676;23.356;2023-04-07T05:06:09;18.77;;;12.60;;
79243;SDS011;68672;42.676;23.356;2023-04-07T05:08:35;20.08;;;13.18;;
79243;SDS011;68672;42.676;23.356;2023-04-07T05:11:00;19.60;;;13.80;;
79243;SDS011;68672;42.676;23.356;2023-04-07T05:13:26;23.15;;;13.20;;
79243;SDS011;68672;42.676;23.356;2023-04-07T05:15:51;21.25;;;13.50;;
79243;SDS011;68672;42.676;23.356;2023-04-07T05:18:17;18.48;;;12.45;;
79243;SDS011;68672;42.676;23.356;2023-04-07T05:20:43;18.42;;;12.65;;
79243;SDS011;68672;42.676;23.356;2023-04-07T05:23:08;16.13;;;13.20;;
79243;SDS011;68672;42.676;23.356;2023-04-07T05:25:34;16.95;;;12.13;;
79243;SDS011;68672;42.676;23.356;2023-04-07T05:27:59;18.38;;;13.02;;
79243;SDS011;68672;42.676;23.356;2023-04-07T05:30:25;18.00;;;13.05;;
79243;SDS011;68672;42.676;23.356;2023-04-07T05:32:51;22.70;;;13.20;;
79243;SDS011;68672;42.676;23.356;2023-04-07T05:35:17;17.48;;;12.18;;
79243;SDS011;68672;42.676;23.356;2023-04-07T05:37:42;19.88;;;13.55;;
79243;SDS011;68672;42.676;23.356;2023-04-07T05:40:08;18.25;;;13.85;;
79243;SDS011;68672;42.676;23.356;2023-04-07T05:42:34;20.73;;;13.05;;
79243;SDS011;68672;42.676;23.356;2023-04-07T05:44:59;18.95;;;13.48;;
79243;SDS011;68672;42.676;23.356;2023-04-07T05:47:25;21.38;;;12.98;;
79243;SDS011;68672;42.676;23.356;2023-04-07T05:49:50;17.83;;;13.88;;
79243;SDS011;68672;42.676;23.356;2023-04-07T05:52:16;21.17;;;14.95;;
79243;SDS011;68672;42.676;23.356;2023-04-07T05:54:44;22.83;;;14.77;;
79243;SDS011;68672;42.676;23.356;2023-04-07T05:57:10;24.02;;;15.70;;
79243;SDS011;68672;42.676;23.356;2023-04-07T05:59:35;20.45;;;13.40;;
79243;SDS011;68672;42.676;23.356;2023-04-07T06:02:01;20.77;;;14.18;;
79243;SDS011;68672;42.676;23.356;2023-04-07T06:04:27;19.00;;;13.27;;
79243;SDS011;68672;42.676;23.356;2023-04-07T06:06:56;18.23;;;13.68;;
79243;SDS011;68672;42.676;23.356;2023-04-07T06:09:21;19.38;;;13.68;;
79243;SDS011;68672;42.676;23.356;2023-04-07T06:11:47;19.13;;;13.63;;
79243;SDS011;68672;42.676;23.356;2023-04-07T06:14:12;18.35;;;13.63;;
79243;SDS011;68672;42.676;23.356;2023-04-07T06:16:38;18.10;;;13.45;;
79243;SDS011;68672;42.676;23.356;2023-04-07T06:19:04;20.52;;;12.75;;
79243;SDS011;68672;42.676;23.356;2023-04-07T06:21:31;14.20;;;11.88;;
79243;SDS011;68672;42.676;23.356;2023-04-07T06:23:57;22.02;;;14.00;;
79243;SDS011;68672;42.676;23.356;2023-04-07T06:26:22;19.27;;;13.65;;
79243;SDS011;68672;42.676;23.356;2023-04-07T06:28:48;17.05;;;11.75;;
79243;SDS011;68672;42.676;23.356;2023-04-07T06:31:16;16.75;;;11.38;;
79243;SDS011;68672;42.676;23.356;2023-04-07T06:33:42;18.63;;;12.07;;
79243;SDS011;68672;42.676;23.356;2023-04-07T06:36:08;15.57;;;12.27;;
79243;SDS011;68672;42.676;23.356;2023-04-07T06:38:34;17.75;;;12.73;;
79243;SDS011;68672;42.676;23.356;2023-04-07T06:41:00;18.83;;;12.75;;
79243;SDS011;68672;42.676;23.356;2023-04-07T06:43:25;20.38;;;13.15;;
79243;SDS011;68672;42.676;23.356;2023-04-07T06:45:51;17.92;;;11.73;;
79243;SDS011;68672;42.676;23.356;2023-04-07T06:48:16;19.67;;;13.15;;
79243;SDS011;68672;42.676;23.356;2023-04-07T06:50:45;18.80;;;11.77;;
79243;SDS011;68672;42.676;23.356;2023-04-07T06:53:11;15.63;;;11.50;;
79243;SDS011;68672;42.676;23.356;2023-04-07T06:55:36;17.55;;;11.90;;
79243;SDS011;68672;42.676;23.356;2023-04-07T06:58:04;16.08;;;11.43;;
79243;SDS011;68672;42.676;23.356;2023-04-07T07:00:30;18.90;;;12.18;;
79243;SDS011;68672;42.676;23.356;2023-04-07T07:02:58;14.07;;;10.77;;
79243;SDS011;68672;42.676;23.356;2023-04-07T07:05:23;16.73;;;10.73;;
79243;SDS011;68672;42.676;23.356;2023-04-07T07:07:49;17.15;;;11.98;;
79243;SDS011;68672;42.676;23.356;2023-04-07T07:10:18;17.20;;;11.07;;
79243;SDS011;68672;42.676;23.356;2023-04-07T07:12:47;17.70;;;12.23;;
79243;SDS011;68672;42.676;23.356;2023-04-07T07:15:15;15.95;;;11.75;;
79243;SDS011;68672;42.676;23.356;2023-04-07T07:17:41;16.85;;;11.93;;
79243;SDS011;68672;42.676;23.356;2023-04-07T07:20:06;19.33;;;12.00;;
79243;SDS011;68672;42.676;23.356;2023-04-07T07:22:32;14.70;;;10.90;;
79243;SDS011;68672;42.676;23.356;2023-04-07T07:24:58;12.00;;;7.72;;
79243;SDS011;68672;42.676;23.356;2023-04-07T07:27:23;11.88;;;8.88;;
79243;SDS011;68672;42.676;23.356;2023-04-07T07:29:49;9.18;;;6.95;;
79243;SDS011;68672;42.676;23.356;2023-04-07T07:32:15;9.05;;;6.07;;
79243;SDS011;68672;42.676;23.356;2023-04-07T07:34:40;8.40;;;5.45;;
79243;SDS011;68672;42.676;23.356;2023-04-07T07:37:06;9.52;;;6.47;;
79243;SDS011;68672;42.676;23.356;2023-04-07T07:39:32;8.90;;;5.45;;
79243;SDS011;68672;42.676;23.356;2023-04-07T07:41:57;6.53;;;5.32;;
79243;SDS011;68672;42.676;23.356;2023-04-07T07:44:22;7.70;;;5.28;;
79243;SDS011;68672;42.676;23.356;2023-04-07T07:46:48;8.45;;;5.50;;
79243;SDS011;68672;42.676;23.356;2023-04-07T07:49:14;10.45;;;6.57;;
79243;SDS011;68672;42.676;23.356;2023-04-07T07:51:40;11.60;;;5.78;;
79243;SDS011;68672;42.676;23.356;2023-04-07T07:54:05;7.18;;;5.88;;
79243;SDS011;68672;42.676;23.356;2023-04-07T07:56:31;6.97;;;5.97;;
79243;SDS011;68672;42.676;23.356;2023-04-07T07:58:56;8.38;;;5.68;;
79243;SDS011;68672;42.676;23.356;2023-04-07T08:01:24;10.18;;;6.20;;
79243;SDS011;68672;42.676;23.356;2023-04-07T08:03:50;6.80;;;5.10;;
79243;SDS011;68672;42.676;23.356;2023-04-07T08:06:16;6.60;;;5.32;;
79243;SDS011;68672;42.676;23.356;2023-04-07T08:08:42;8.70;;;5.80;;
79243;SDS011;68672;42.676;23.356;2023-04-07T08:11:07;9.00;;;5.82;;
79243;SDS011;68672;42.676;23.356;2023-04-07T08:13:33;8.63;;;5.97;;
79243;SDS011;68672;42.676;23.356;2023-04-07T08:15:58;6.72;;;5.78;;
79243;SDS011;68672;42.676;23.356;2023-04-07T08:18:24;9.77;;;6.32;;
79243;SDS011;68672;42.676;23.356;2023-04-07T08:20:49;9.48;;;5.95;;
79243;SDS011;68672;42.676;23.356;2023-04-07T08:23:15;6.95;;;5.85;;
79243;SDS011;68672;42.676;23.356;2023-04-07T08:25:41;8.07;;;5.60;;
79243;SDS011;68672;42.676;23.356;2023-04-07T08:28:06;7.78;;;5.70;;
79243;SDS011;68672;42.676;23.356;2023-04-07T08:30:32;6.90;;;5.45;;
79243;SDS011;68672;42.676;23.356;2023-04-07T08:32:57;10.65;;;5.70;;
79243;SDS011;68672;42.676;23.356;2023-04-07T08:35:23;7.13;;;5.78;;
79243;SDS011;68672;42.676;23.356;2023-04-07T08:37:48;9.75;;;5.53;;
79243;SDS011;68672;42.676;23.356;2023-04-07T08:40:14;9.65;;;5.65;;
79243;SDS011;68672;42.676;23.356;2023-04-07T08:42:41;8.18;;;5.65;;
79243;SDS011;68672;42.676;23.356;2023-04-07T08:45:12;8.25;;;5.35;;
79243;SDS011;68672;42.676;23.356;2023-04-07T08:47:43;7.70;;;5.75;;
79243;SDS011;68672;42.676;23.356;2023-04-07T08:50:10;6.57;;;5.38;;
79243;SDS011;68672;42.676;23.356;2023-04-07T08:52:49;6.03;;;5.18;;
79243;SDS011;68672;42.676;23.356;2023-04-07T08:55:16;6.15;;;5.32;;
79243;SDS011;68672;42.676;23.356;2023-04-07T08:57:45;6.18;;;5.03;;
79243;SDS011;68672;42.676;23.356;2023-04-07T09:00:11;7.35;;;5.13;;
79243;SDS011;68672;42.676;23.356;2023-04-07T09:02:38;6.75;;;5.22;;
79243;SDS011;68672;42.676;23.356;2023-04-07T09:05:08;7.00;;;5.78;;
79243;SDS011;68672;42.676;23.356;2023-04-07T09:07:40;7.10;;;5.47;;
79243;SDS011;68672;42.676;23.356;2023-04-07T09:10:07;8.63;;;6.18;;
79243;SDS011;68672;42.676;23.356;2023-04-07T09:12:33;8.13;;;5.97;;
79243;SDS011;68672;42.676;23.356;2023-04-07T09:14:59;7.03;;;5.82;;
79243;SDS011;68672;42.676;23.356;2023-04-07T09:17:28;7.57;;;6.47;;
79243;SDS011;68672;42.676;23.356;2023-04-07T09:19:57;7.95;;;6.45;;
79243;SDS011;68672;42.676;23.356;2023-04-07T09:22:44;9.52;;;6.72;;
79243;SDS011;68672;42.676;23.356;2023-04-07T09:30:17;10.75;;;7.45;;
79243;SDS011;68672;42.676;23.356;2023-04-07T09:32:43;11.18;;;6.63;;
79243;SDS011;68672;42.676;23.356;2023-04-07T09:35:08;12.00;;;6.93;;
79243;SDS011;68672;42.676;23.356;2023-04-07T09:37:34;8.18;;;6.50;;
79243;SDS011;68672;42.676;23.356;2023-04-07T09:40:02;7.95;;;6.22;;
79243;SDS011;68672;42.676;23.356;2023-04-07T09:42:28;8.05;;;5.97;;
79243;SDS011;68672;42.676;23.356;2023-04-07T09:44:57;7.43;;;6.32;;
79243;SDS011;68672;42.676;23.356;2023-04-07T09:47:27;7.80;;;6.30;;
79243;SDS011;68672;42.676;23.356;2023-04-07T09:50:05;8.00;;;6.82;;
79243;SDS011;68672;42.676;23.356;2023-04-07T09:52:48;7.03;;;5.72;;
79243;SDS011;68672;42.676;23.356;2023-04-07T09:55:19;9.10;;;6.72;;
79243;SDS011;68672;42.676;23.356;2023-04-07T09:57:45;9.70;;;6.57;;
79243;SDS011;68672;42.676;23.356;2023-04-07T10:00:11;7.97;;;6.13;;
79243;SDS011;68672;42.676;23.356;2023-04-07T10:02:37;7.00;;;6.30;;
79243;SDS011;68672;42.676;23.356;2023-04-07T10:05:03;7.13;;;5.78;;
79243;SDS011;68672;42.676;23.356;2023-04-07T10:07:29;9.05;;;7.50;;
79243;SDS011;68672;42.676;23.356;2023-04-07T10:09:56;7.13;;;5.70;;
79243;SDS011;68672;42.676;23.356;2023-04-07T10:12:21;8.38;;;6.93;;
79243;SDS011;68672;42.676;23.356;2023-04-07T10:14:51;7.97;;;6.07;;
79243;SDS011;68672;42.676;23.356;2023-04-07T10:17:16;9.52;;;6.13;;
79243;SDS011;68672;42.676;23.356;2023-04-07T10:19:44;9.63;;;7.68;;
79243;SDS011;68672;42.676;23.356;2023-04-07T10:22:10;7.63;;;6.68;;
79243;SDS011;68672;42.676;23.356;2023-04-07T10:30:27;8.80;;;6.75;;
79243;SDS011;68672;42.676;23.356;2023-04-07T10:32:54;7.50;;;6.53;;
79243;SDS011;68672;42.676;23.356;2023-04-07T10:35:20;7.75;;;6.55;;
79243;SDS011;68672;42.676;23.356;2023-04-07T10:40:37;8.45;;;6.50;;
79243;SDS011;68672;42.676;23.356;2023-04-07T10:43:04;8.98;;;7.40;;
79243;SDS011;68672;42.676;23.356;2023-04-07T10:48:12;11.00;;;8.75;;
79243;SDS011;68672;42.676;23.356;2023-04-07T10:50:43;7.97;;;6.93;;
79243;SDS011;68672;42.676;23.356;2023-04-07T10:53:13;11.75;;;7.30;;
79243;SDS011;68672;42.676;23.356;2023-04-07T10:55:42;8.88;;;7.72;;
79243;SDS011;68672;42.676;23.356;2023-04-07T11:03:24;8.15;;;7.25;;
79243;SDS011;68672;42.676;23.356;2023-04-07T11:05:50;7.53;;;6.50;;
79243;SDS011;68672;42.676;23.356;2023-04-07T11:08:34;8.13;;;6.88;;
79243;SDS011;68672;42.676;23.356;2023-04-07T11:11:08;9.98;;;7.18;;
79243;SDS011;68672;42.676;23.356;2023-04-07T11:16:06;9.27;;;7.22;;
79243;SDS011;68672;42.676;23.356;2023-04-07T11:18:32;8.02;;;7.03;;
79243;SDS011;68672;42.676;23.356;2023-04-07T11:20:59;9.55;;;7.63;;
79243;SDS011;68672;42.676;23.356;2023-04-07T11:23:24;10.82;;;7.60;;
79243;SDS011;68672;42.676;23.356;2023-04-07T11:25:59;9.88;;;7.22;;
79243;SDS011;68672;42.676;23.356;2023-04-07T11:28:28;9.13;;;7.20;;
79243;SDS011;68672;42.676;23.356;2023-04-07T11:30:55;9.73;;;7.32;;
79243;SDS011;68672;42.676;23.356;2023-04-07T11:33:24;8.68;;;7.10;;
79243;SDS011;68672;42.676;23.356;2023-04-07T11:35:58;11.93;;;8.40;;
79243;SDS011;68672;42.676;23.356;2023-04-07T11:38:26;8.85;;;7.50;;
79243;SDS011;68672;42.676;23.356;2023-04-07T11:40:53;8.07;;;7.28;;
79243;SDS011;68672;42.676;23.356;2023-04-07T11:43:24;12.77;;;8.27;;
79243;SDS011;68672;42.676;23.356;2023-04-07T11:46:09;13.15;;;8.07;;
79243;SDS011;68672;42.676;23.356;2023-04-07T11:48:39;8.82;;;7.38;;
79243;SDS011;68672;42.676;23.356;2023-04-07T11:51:06;9.43;;;7.78;;
79243;SDS011;68672;42.676;23.356;2023-04-07T11:53:46;10.43;;;7.22;;
79243;SDS011;68672;42.676;23.356;2023-04-07T11:56:20;9.85;;;7.95;;
79243;SDS011;68672;42.676;23.356;2023-04-07T11:58:55;9.45;;;7.65;;
79243;SDS011;68672;42.676;23.356;2023-04-07T12:01:21;9.60;;;7.85;;
79243;SDS011;68672;42.676;23.356;2023-04-07T12:03:58;10.02;;;7.60;;
79243;SDS011;68672;42.676;23.356;2023-04-07T12:06:29;9.07;;;7.95;;
79243;SDS011;68672;42.676;23.356;2023-04-07T12:09:02;9.02;;;7.78;;
79243;SDS011;68672;42.676;23.356;2023-04-07T12:11:31;9.30;;;7.82;;
79243;SDS011;68672;42.676;23.356;2023-04-07T12:13:57;9.98;;;8.18;;
79243;SDS011;68672;42.676;23.356;2023-04-07T12:16:23;9.63;;;7.85;;
79243;SDS011;68672;42.676;23.356;2023-04-07T12:18:48;10.73;;;8.77;;
79243;SDS011;68672;42.676;23.356;2023-04-07T12:21:18;10.88;;;8.10;;
79243;SDS011;68672;42.676;23.356;2023-04-07T12:23:44;10.35;;;8.77;;
79243;SDS011;68672;42.676;23.356;2023-04-07T12:26:11;9.05;;;8.15;;
79243;SDS011;68672;42.676;23.356;2023-04-07T12:28:42;10.55;;;8.30;;
79243;SDS011;68672;42.676;23.356;2023-04-07T12:31:08;9.93;;;7.80;;
79243;SDS011;68672;42.676;23.356;2023-04-07T12:33:34;10.45;;;7.80;;
79243;SDS011;68672;42.676;23.356;2023-04-07T12:36:02;10.95;;;8.32;;
79243;SDS011;68672;42.676;23.356;2023-04-07T12:38:28;9.65;;;8.68;;
79243;SDS011;68672;42.676;23.356;2023-04-07T12:40:53;9.75;;;8.23;;
79243;SDS011;68672;42.676;23.356;2023-04-07T12:43:19;9.43;;;8.43;;
79243;SDS011;68672;42.676;23.356;2023-04-07T12:45:44;9.85;;;8.57;;
79243;SDS011;68672;42.676;23.356;2023-04-07T12:48:10;10.00;;;8.52;;
79243;SDS011;68672;42.676;23.356;2023-04-07T12:50:38;10.50;;;9.40;;
79243;SDS011;68672;42.676;23.356;2023-04-07T12:53:03;9.27;;;8.32;;
79243;SDS011;68672;42.676;23.356;2023-04-07T12:55:32;9.85;;;8.05;;
79243;SDS011;68672;42.676;23.356;2023-04-07T12:57:58;11.05;;;8.18;;
79243;SDS011;68672;42.676;23.356;2023-04-07T13:00:24;9.38;;;8.25;;
79243;SDS011;68672;42.676;23.356;2023-04-07T13:02:49;10.43;;;8.50;;
79243;SDS011;68672;42.676;23.356;2023-04-07T13:05:15;9.02;;;8.13;;
79243;SDS011;68672;42.676;23.356;2023-04-07T13:07:43;8.95;;;7.82;;
79243;SDS011;68672;42.676;23.356;2023-04-07T13:10:08;14.82;;;8.45;;
79243;SDS011;68672;42.676;23.356;2023-04-07T13:12:34;12.63;;;8.75;;
79243;SDS011;68672;42.676;23.356;2023-04-07T13:15:00;12.90;;;8.45;;
79243;SDS011;68672;42.676;23.356;2023-04-07T13:17:26;11.00;;;8.75;;
79243;SDS011;68672;42.676;23.356;2023-04-07T13:19:52;9.18;;;7.53;;
79243;SDS011;68672;42.676;23.356;2023-04-07T13:22:18;10.77;;;8.30;;
79243;SDS011;68672;42.676;23.356;2023-04-07T13:24:43;12.63;;;8.32;;
79243;SDS011;68672;42.676;23.356;2023-04-07T13:27:09;11.30;;;8.23;;
79243;SDS011;68672;42.676;23.356;2023-04-07T13:29:35;11.70;;;8.18;;
79243;SDS011;68672;42.676;23.356;2023-04-07T13:32:03;12.52;;;8.27;;
79243;SDS011;68672;42.676;23.356;2023-04-07T13:34:35;11.43;;;8.20;;
79243;SDS011;68672;42.676;23.356;2023-04-07T13:37:01;13.48;;;9.82;;
79243;SDS011;68672;42.676;23.356;2023-04-07T13:39:28;11.77;;;8.60;;
79243;SDS011;68672;42.676;23.356;2023-04-07T13:41:57;10.73;;;8.27;;
79243;SDS011;68672;42.676;23.356;2023-04-07T13:44:23;10.73;;;8.73;;
79243;SDS011;68672;42.676;23.356;2023-04-07T13:46:52;9.40;;;8.18;;
79243;SDS011;68672;42.676;23.356;2023-04-07T13:49:18;8.85;;;7.47;;
79243;SDS011;68672;42.676;23.356;2023-04-07T13:51:44;11.10;;;8.55;;
79243;SDS011;68672;42.676;23.356;2023-04-07T13:54:09;9.63;;;7.50;;
79243;SDS011;68672;42.676;23.356;2023-04-07T13:56:35;8.45;;;7.40;;
79243;SDS011;68672;42.676;23.356;2023-04-07T13:59:05;10.05;;;7.60;;
79243;SDS011;68672;42.676;23.356;2023-04-07T14:01:34;10.13;;;8.20;;
79243;SDS011;68672;42.676;23.356;2023-04-07T14:04:03;9.57;;;7.53;;
79243;SDS011;68672;42.676;23.356;2023-04-07T14:06:29;10.15;;;8.20;;
79243;SDS011;68672;42.676;23.356;2023-04-07T14:09:02;9.20;;;6.97;;
79243;SDS011;68672;42.676;23.356;2023-04-07T14:11:28;8.65;;;7.45;;
79243;SDS011;68672;42.676;23.356;2023-04-07T14:13:53;9.95;;;8.95;;
79243;SDS011;68672;42.676;23.356;2023-04-07T14:16:21;9.05;;;7.63;;
79243;SDS011;68672;42.676;23.356;2023-04-07T14:18:46;11.85;;;8.02;;
79243;SDS011;68672;42.676;23.356;2023-04-07T14:21:13;12.35;;;8.57;;
79243;SDS011;68672;42.676;23.356;2023-04-07T14:23:39;9.85;;;7.18;;
79243;SDS011;68672;42.676;23.356;2023-04-07T14:26:08;10.02;;;8.30;;
79243;SDS011;68672;42.676;23.356;2023-04-07T14:28:35;11.85;;;9.52;;
79243;SDS011;68672;42.676;23.356;2023-04-07T14:31:00;9.77;;;8.55;;
79243;SDS011;68672;42.676;23.356;2023-04-07T14:33:26;11.18;;;8.98;;
79243;SDS011;68672;42.676;23.356;2023-04-07T14:35:51;12.88;;;9.40;;
79243;SDS011;68672;42.676;23.356;2023-04-07T14:38:17;12.13;;;7.85;;
79243;SDS011;68672;42.676;23.356;2023-04-07T14:40:48;11.50;;;9.43;;
79243;SDS011;68672;42.676;23.356;2023-04-07T14:43:16;10.38;;;9.00;;
79243;SDS011;68672;42.676;23.356;2023-04-07T14:45:42;18.25;;;13.68;;
79243;SDS011;68672;42.676;23.356;2023-04-07T14:48:08;11.95;;;8.88;;
79243;SDS011;68672;42.676;23.356;2023-04-07T14:50:33;14.30;;;9.20;;
79243;SDS011;68672;42.676;23.356;2023-04-07T14:52:59;10.93;;;8.52;;
79243;SDS011;68672;42.676;23.356;2023-04-07T14:55:25;10.80;;;8.85;;
79243;SDS011;68672;42.676;23.356;2023-04-07T14:57:50;10.43;;;8.82;;